Time;durP1;ratioP1;P1;durP2;ratioP2;P2;SDS_P1;SDS_P2;PMS_P1;PMS_P2;Temp;Humidity;BMP_temperature;BMP_pressure;BME280_temperature;BME280_humidity;BME280_pressure;Samples;Min_cycle;Max_cycle;Signal;HPM_P1;HPM_P2
2021/11/20 00:00:50;;;;;;;2.67;0.45;;;19.60;53.00;;;;;;5087442;28;20044;-54
2021/11/20 00:03:17;;;;;;;0.40;0.40;;;19.60;52.90;;;;;;5085710;28;20048;-52
2021/11/20 00:05:47;;;;;;;0.22;0.22;;;19.70;53.00;;;;;;5087151;28;20036;-53
2021/11/20 00:08:15;;;;;;;0.63;0.30;;;19.60;52.90;;;;;;5087091;28;20497;-55
2021/11/20 00:10:48;;;;;;;0.45;0.22;;;19.60;52.90;;;;;;5086927;28;20036;-56
2021/11/20 00:13:16;;;;;;;0.77;0.30;;;19.60;52.90;;;;;;5082267;28;20045;-56
2021/11/20 00:15:46;;;;;;;1.10;0.32;;;19.60;52.90;;;;;;5095120;28;20051;-55
2021/11/20 00:18:14;;;;;;;0.90;0.20;;;19.60;52.80;;;;;;5092228;28;20043;-52
2021/11/20 00:20:48;;;;;;;0.55;0.47;;;19.60;52.80;;;;;;5097385;28;20044;-55
2021/11/20 00:23:18;;;;;;;0.70;0.20;;;19.60;52.80;;;;;;5093240;28;20439;-54
2021/11/20 00:25:49;;;;;;;0.45;0.20;;;19.60;52.80;;;;;;5090621;28;20058;-55
2021/11/20 00:28:21;;;;;;;0.70;0.43;;;19.60;52.80;;;;;;5088023;28;20036;-55
2021/11/20 00:30:54;;;;;;;1.58;0.30;;;19.60;52.80;;;;;;5088234;28;20546;-54
2021/11/20 00:33:25;;;;;;;0.22;0.22;;;19.60;52.80;;;;;;5074604;28;20052;-55
2021/11/20 00:35:54;;;;;;;0.40;0.20;;;19.60;52.80;;;;;;5080750;28;20056;-55
2021/11/20 00:38:22;;;;;;;0.30;0.20;;;19.60;52.80;;;;;;5070841;28;20058;-54
2021/11/20 00:40:53;;;;;;;0.22;0.22;;;19.60;52.80;;;;;;5074904;28;20055;-53
2021/11/20 00:43:22;;;;;;;1.25;0.57;;;19.50;52.70;;;;;;5088469;28;20082;-54
2021/11/20 00:45:50;;;;;;;0.40;0.20;;;19.50;52.70;;;;;;5095256;28;20044;-54
2021/11/20 00:48:20;;;;;;;0.28;0.28;;;19.50;52.70;;;;;;5068787;28;20272;-53
2021/11/20 00:50:50;;;;;;;0.20;0.20;;;19.50;52.70;;;;;;5090042;28;20153;-51
2021/11/20 00:53:17;;;;;;;0.30;0.10;;;19.50;52.70;;;;;;5076329;28;20126;-54
2021/11/20 00:55:45;;;;;;;0.50;0.10;;;19.50;52.70;;;;;;5088989;28;20024;-53
2021/11/20 00:58:12;;;;;;;0.20;0.20;;;19.50;52.70;;;;;;5100261;28;20037;-53
2021/11/20 01:00:43;;;;;;;0.20;0.10;;;19.50;52.70;;;;;;5073442;28;20089;-54
2021/11/20 01:03:11;;;;;;;0.10;0.10;;;19.50;52.70;;;;;;5088295;28;20477;-51
2021/11/20 01:05:39;;;;;;;0.50;0.38;;;19.50;52.70;;;;;;5077280;28;20066;-53
2021/11/20 01:08:07;;;;;;;0.65;0.25;;;19.50;52.70;;;;;;5080505;28;20127;-55
2021/11/20 01:10:39;;;;;;;0.40;0.20;;;19.50;52.70;;;;;;5071046;28;20036;-54
2021/11/20 01:13:06;;;;;;;0.77;0.32;;;19.50;52.70;;;;;;5085147;28;20055;-53
2021/11/20 01:15:39;;;;;;;0.35;0.35;;;19.50;52.70;;;;;;5091629;28;20036;-54
2021/11/20 01:18:10;;;;;;;0.40;0.20;;;19.50;52.70;;;;;;5088778;28;20043;-54
2021/11/20 01:20:42;;;;;;;0.38;0.20;;;19.40;52.70;;;;;;5076619;28;20055;-53
2021/11/20 01:23:10;;;;;;;0.20;0.20;;;19.40;52.70;;;;;;5079851;28;20036;-55
2021/11/20 01:25:44;;;;;;;0.22;0.22;;;19.50;52.70;;;;;;5091957;28;20036;-53
2021/11/20 01:28:29;;;;;;;0.30;0.20;;;19.40;52.70;;;;;;5069655;28;20044;-55
2021/11/20 01:31:12;;;;;;;0.15;0.15;;;19.40;52.70;;;;;;5072603;28;20040;-53
2021/11/20 01:33:45;;;;;;;0.50;0.20;;;19.40;52.70;;;;;;5076378;28;20036;-55
2021/11/20 01:36:15;;;;;;;0.57;0.30;;;19.40;52.70;;;;;;5081043;28;20078;-54
2021/11/20 01:38:46;;;;;;;0.40;0.30;;;19.40;52.70;;;;;;5083559;28;20040;-54
2021/11/20 01:41:20;;;;;;;0.30;0.20;;;19.40;53.30;;;;;;5069127;28;20041;-55
2021/11/20 01:44:11;;;;;;;0.98;0.43;;;19.40;52.70;;;;;;5086805;28;20044;-54
2021/11/20 01:46:41;;;;;;;0.50;0.20;;;19.40;52.70;;;;;;5072786;28;20048;-52
2021/11/20 01:49:15;;;;;;;0.70;0.70;;;19.40;52.70;;;;;;5083214;28;20032;-52
2021/11/20 01:51:46;;;;;;;0.20;0.10;;;19.40;52.70;;;;;;5090690;28;20098;-54
2021/11/20 01:54:24;;;;;;;0.10;0.10;;;19.40;52.70;;;;;;5094440;28;20044;-56
2021/11/20 01:57:16;;;;;;;0.40;0.40;;;19.40;52.70;;;;;;5091802;28;20078;-51
2021/11/20 01:59:54;;;;;;;0.20;0.20;;;19.30;52.70;;;;;;5075888;28;20071;-54
2021/11/20 02:02:57;;;;;;;1.58;0.35;;;19.40;52.80;;;;;;5094526;28;20445;-53
2021/11/20 02:05:43;;;;;;;0.32;0.32;;;19.30;52.80;;;;;;5080176;28;20052;-53
2021/11/20 02:08:23;;;;;;;0.82;0.70;;;19.30;52.80;;;;;;5079034;28;20081;-56
2021/11/20 02:10:56;;;;;;;1.95;0.30;;;19.30;52.80;;;;;;5056911;28;20127;-52
2021/11/20 02:13:25;;;;;;;0.35;0.35;;;19.30;52.80;;;;;;5100994;27;20074;-56
2021/11/20 02:15:58;;;;;;;0.63;0.40;;;19.30;52.70;;;;;;5071665;28;20047;-55
2021/11/20 02:18:29;;;;;;;0.35;0.32;;;19.30;52.70;;;;;;5080572;28;20052;-55
2021/11/20 02:21:03;;;;;;;0.40;0.40;;;19.30;52.70;;;;;;5073162;28;20044;-55
2021/11/20 02:23:42;;;;;;;0.98;0.35;;;19.30;52.70;;;;;;5077196;28;20763;-55
2021/11/20 02:26:10;;;;;;;1.65;0.40;;;19.30;52.70;;;;;;5072807;28;20079;-56
2021/11/20 02:28:49;;;;;;;0.52;0.45;;;19.30;52.70;;;;;;5053602;28;20032;-52
2021/11/20 02:31:36;;;;;;;;;;;19.30;52.70;;;;;;5061008;28;20074;-55
2021/11/20 02:34:03;;;;;;;0.57;0.57;;;19.20;52.60;;;;;;5069599;28;20495;-54
2021/11/20 02:36:31;;;;;;;0.32;0.32;;;19.20;52.80;;;;;;5050328;28;20049;-54
2021/11/20 02:39:02;;;;;;;0.90;0.90;;;19.20;52.80;;;;;;5055397;28;20055;-51
2021/11/20 02:41:31;;;;;;;0.30;0.20;;;19.20;52.70;;;;;;5055927;28;20044;-54
2021/11/20 02:44:01;;;;;;;0.50;0.50;;;19.20;52.80;;;;;;5055739;28;20115;-54
2021/11/20 02:46:32;;;;;;;0.43;0.43;;;19.30;52.80;;;;;;5060613;28;20048;-54
2021/11/20 02:49:03;;;;;;;0.73;0.50;;;19.30;52.70;;;;;;5058481;28;20055;-55
2021/11/20 02:51:33;;;;;;;0.22;0.20;;;19.30;52.80;;;;;;5043076;28;20048;-53
2021/11/20 02:54:02;;;;;;;0.30;0.30;;;19.30;52.70;;;;;;5075538;28;20457;-53
2021/11/20 02:56:33;;;;;;;0.65;0.45;;;19.20;52.60;;;;;;5066274;28;20044;-56
2021/11/20 02:59:00;;;;;;;0.90;0.30;;;19.30;52.70;;;;;;5047850;28;20048;-55
2021/11/20 03:01:36;;;;;;;0.40;0.40;;;19.20;52.60;;;;;;5073433;28;20520;-54
2021/11/20 03:04:06;;;;;;;0.50;0.50;;;19.20;52.60;;;;;;5079385;28;20037;-50
2021/11/20 03:06:33;;;;;;;0.63;0.40;;;19.30;52.60;;;;;;5087320;28;20526;-54
2021/11/20 03:09:01;;;;;;;1.27;0.35;;;19.20;52.50;;;;;;5075758;28;20052;-52
2021/11/20 03:11:28;;;;;;;0.40;0.20;;;19.30;53.20;;;;;;5074275;28;20046;-52
2021/11/20 03:14:04;;;;;;;0.30;0.25;;;19.20;52.50;;;;;;5060925;28;20109;-50
2021/11/20 03:16:48;;;;;;;0.30;0.10;;;19.20;52.60;;;;;;5069745;28;20416;-52
2021/11/20 03:19:17;;;;;;;0.40;0.40;;;19.20;52.60;;;;;;5051164;28;20121;-53
2021/11/20 03:21:48;;;;;;;3.40;0.30;;;19.20;52.60;;;;;;5050038;28;20041;-52
2021/11/20 03:24:18;;;;;;;0.20;0.20;;;19.20;52.50;;;;;;5057353;28;20045;-50
2021/11/20 03:26:45;;;;;;;0.30;0.30;;;19.20;52.50;;;;;;5051878;28;20040;-51
2021/11/20 03:29:14;;;;;;;0.68;0.30;;;19.20;52.50;;;;;;5053422;28;20074;-50
2021/11/20 03:31:42;;;;;;;0.30;0.30;;;19.20;52.50;;;;;;5052004;28;20567;-52
2021/11/20 03:34:10;;;;;;;0.38;0.38;;;19.20;52.50;;;;;;5066618;28;20362;-54
2021/11/20 03:36:40;;;;;;;0.63;0.28;;;19.20;52.50;;;;;;5048002;28;20521;-52
2021/11/20 03:39:13;;;;;;;0.35;0.35;;;19.20;52.50;;;;;;5058382;28;20826;-50
2021/11/20 03:41:41;;;;;;;0.30;0.30;;;19.20;52.50;;;;;;5056578;28;20064;-49
2021/11/20 03:44:08;;;;;;;0.50;0.22;;;19.20;52.50;;;;;;5055245;28;20070;-55
2021/11/20 03:46:36;;;;;;;0.47;0.10;;;19.20;52.50;;;;;;5054285;28;20066;-55
2021/11/20 03:49:05;;;;;;;0.25;0.20;;;19.20;52.50;;;;;;5051359;28;20044;-55
2021/11/20 03:51:33;;;;;;;0.20;0.17;;;19.20;52.50;;;;;;5052841;28;20127;-55
2021/11/20 03:54:02;;;;;;;0.20;0.20;;;19.20;52.50;;;;;;5062336;28;20102;-54
2021/11/20 03:56:30;;;;;;;0.35;0.35;;;19.20;52.50;;;;;;5059236;28;20127;-51
2021/11/20 03:58:58;;;;;;;0.77;0.30;;;19.20;52.50;;;;;;5053187;28;20040;-47
2021/11/20 04:01:28;;;;;;;0.80;0.20;;;19.20;52.50;;;;;;5047898;28;20536;-53
2021/11/20 04:03:55;;;;;;;0.20;0.20;;;19.20;52.50;;;;;;5073956;28;20535;-55
2021/11/20 04:06:23;;;;;;;0.40;0.30;;;19.10;52.40;;;;;;5072408;28;20054;-52
2021/11/20 04:09:06;;;;;;;0.20;0.20;;;19.10;52.40;;;;;;5091542;28;20119;-56
2021/11/20 04:11:35;;;;;;;0.20;0.17;;;19.10;52.40;;;;;;5058538;28;20450;-50
2021/11/20 04:14:05;;;;;;;0.20;0.20;;;19.10;52.50;;;;;;5062005;28;20047;-50
2021/11/20 04:16:33;;;;;;;0.43;0.22;;;19.10;52.50;;;;;;5067272;28;20145;-54
2021/11/20 04:19:03;;;;;;;0.30;0.30;;;19.10;52.40;;;;;;5046356;28;20041;-57
2021/11/20 04:21:31;;;;;;;1.15;0.30;;;19.10;52.40;;;;;;5068216;28;20050;-57
2021/11/20 04:24:00;;;;;;;1.88;0.30;;;19.10;52.50;;;;;;5051633;28;20095;-54
2021/11/20 04:26:48;;;;;;;0.17;0.17;;;19.10;52.50;;;;;;5076306;28;20054;-55
2021/11/20 04:29:16;;;;;;;0.13;0.13;;;19.10;52.50;;;;;;5059299;28;20151;-52
2021/11/20 04:31:43;;;;;;;0.20;0.20;;;19.10;52.50;;;;;;5050467;28;20062;-54
2021/11/20 04:34:12;;;;;;;0.45;0.20;;;19.10;53.00;;;;;;5050636;28;20122;-54
2021/11/20 04:36:40;;;;;;;0.10;0.10;;;19.10;52.40;;;;;;5048760;28;20040;-53
2021/11/20 04:39:09;;;;;;;0.25;0.10;;;19.10;52.40;;;;;;5071749;28;20040;-49
2021/11/20 04:41:37;;;;;;;0.20;0.17;;;19.10;52.40;;;;;;5057370;28;20072;-54
2021/11/20 04:44:06;;;;;;;0.40;0.20;;;19.10;52.40;;;;;;5053683;28;20056;-53
2021/11/20 04:46:33;;;;;;;3.75;0.22;;;19.10;52.40;;;;;;5048518;28;20109;-53
2021/11/20 04:49:00;;;;;;;0.82;0.20;;;19.10;52.40;;;;;;5083047;28;20044;-53
2021/11/20 04:51:28;;;;;;;0.10;0.10;;;19.10;53.00;;;;;;5057557;28;20477;-52
2021/11/20 04:53:57;;;;;;;0.20;0.20;;;19.10;52.40;;;;;;5059436;28;20049;-52
2021/11/20 04:56:26;;;;;;;0.10;0.10;;;19.10;52.40;;;;;;5058191;28;20127;-50
2021/11/20 04:58:54;;;;;;;0.20;0.10;;;19.10;52.40;;;;;;5055472;28;20032;-54
2021/11/20 05:01:26;;;;;;;0.13;0.13;;;19.10;52.40;;;;;;5054575;28;20049;-54
2021/11/20 05:03:54;;;;;;;0.20;0.10;;;19.10;52.40;;;;;;5083292;28;20040;-52
2021/11/20 05:06:24;;;;;;;0.10;0.10;;;19.10;52.40;;;;;;5059893;28;20420;-55
2021/11/20 05:08:52;;;;;;;0.10;0.10;;;19.10;52.40;;;;;;5069719;28;20038;-53
2021/11/20 05:11:19;;;;;;;0.10;0.10;;;19.00;52.30;;;;;;5056247;28;20038;-49
2021/11/20 05:13:48;;;;;;;0.13;0.10;;;19.00;52.30;;;;;;5053966;28;20118;-54
2021/11/20 05:16:17;;;;;;;0.10;0.10;;;19.00;52.30;;;;;;5055542;28;20047;-54
2021/11/20 05:18:47;;;;;;;0.10;0.10;;;19.00;52.30;;;;;;5067754;28;20556;-54
2021/11/20 05:21:22;;;;;;;0.10;0.10;;;19.00;52.30;;;;;;5053233;28;20052;-55
2021/11/20 05:23:50;;;;;;;0.10;0.10;;;19.00;52.30;;;;;;5056477;28;20072;-55
2021/11/20 05:26:18;;;;;;;1.25;0.10;;;19.00;52.30;;;;;;5045506;28;20044;-54
2021/11/20 05:29:04;;;;;;;0.10;0.10;;;19.00;52.20;;;;;;5044361;28;20043;-49
2021/11/20 05:31:33;;;;;;;0.10;0.10;;;19.00;52.30;;;;;;5025568;28;20119;-51
2021/11/20 05:34:02;;;;;;;0.15;0.15;;;19.00;52.90;;;;;;5052039;28;20040;-49
2021/11/20 05:36:31;;;;;;;0.10;0.10;;;19.00;52.30;;;;;;5047204;28;20045;-48
2021/11/20 05:39:00;;;;;;;0.85;0.10;;;19.00;52.30;;;;;;5044267;28;20037;-56
2021/11/20 05:41:29;;;;;;;0.10;0.10;;;19.00;52.30;;;;;;5046954;28;20051;-53
2021/11/20 05:43:56;;;;;;;0.10;0.10;;;19.00;52.30;;;;;;5047103;28;20045;-52
2021/11/20 05:46:51;;;;;;;0.10;0.10;;;19.00;52.20;;;;;;5057529;28;20561;-55
2021/11/20 05:49:19;;;;;;;0.17;0.17;;;19.00;52.30;;;;;;5020068;28;20056;-50
2021/11/20 05:51:47;;;;;;;0.10;0.10;;;19.00;52.90;;;;;;5054850;28;20048;-54
2021/11/20 05:54:16;;;;;;;0.10;0.10;;;18.90;52.20;;;;;;5049552;28;20472;-54
2021/11/20 05:56:46;;;;;;;0.20;0.10;;;19.00;52.30;;;;;;5033823;28;20431;-55
2021/11/20 05:59:14;;;;;;;0.10;0.10;;;18.90;52.20;;;;;;5047233;28;20052;-55
2021/11/20 06:01:41;;;;;;;0.32;0.20;;;19.00;52.20;;;;;;5043461;28;20117;-53
2021/11/20 06:04:09;;;;;;;0.10;0.10;;;18.90;52.20;;;;;;5036806;28;20581;-53
2021/11/20 06:06:37;;;;;;;0.10;0.10;;;19.00;52.20;;;;;;5032331;28;20052;-54
2021/11/20 06:09:05;;;;;;;0.10;0.00;;;19.00;52.20;;;;;;5058928;28;20149;-56
2021/11/20 06:11:34;;;;;;;0.10;0.10;;;18.90;52.20;;;;;;5042708;28;20103;-55
2021/11/20 06:14:02;;;;;;;0.10;0.10;;;19.00;52.20;;;;;;5043539;28;20045;-54
2021/11/20 06:16:35;;;;;;;0.10;0.10;;;18.90;52.20;;;;;;5047381;28;20158;-56
2021/11/20 06:19:02;;;;;;;0.10;0.10;;;18.90;52.20;;;;;;5042607;28;20090;-54
2021/11/20 06:21:30;;;;;;;0.17;0.17;;;18.90;52.20;;;;;;5048186;28;20053;-54
2021/11/20 06:23:59;;;;;;;0.10;0.10;;;18.90;52.20;;;;;;5043978;28;20044;-55
2021/11/20 06:26:27;;;;;;;0.10;0.10;;;18.90;52.20;;;;;;5044877;28;20136;-52
2021/11/20 06:28:54;;;;;;;0.10;0.10;;;18.90;52.20;;;;;;5057965;28;20064;-50
2021/11/20 06:31:24;;;;;;;0.10;0.10;;;18.90;52.20;;;;;;5043615;28;20048;-54
2021/11/20 06:34:15;;;;;;;0.43;0.13;;;18.90;52.20;;;;;;5038467;28;20120;-55
2021/11/20 06:37:03;;;;;;;0.10;0.10;;;18.90;52.20;;;;;;5060703;28;20045;-52
2021/11/20 06:39:46;;;;;;;0.10;0.10;;;18.90;52.20;;;;;;5043147;28;20033;-53
2021/11/20 06:42:14;;;;;;;0.45;0.10;;;18.90;52.20;;;;;;5058466;28;20056;-55
2021/11/20 06:44:41;;;;;;;0.10;0.00;;;18.90;52.80;;;;;;5043059;28;20159;-53
2021/11/20 06:47:09;;;;;;;0.10;0.10;;;18.90;52.20;;;;;;5042866;28;20047;-54
2021/11/20 06:49:37;;;;;;;0.10;0.10;;;18.90;52.20;;;;;;5027249;28;20116;-53
2021/11/20 06:52:04;;;;;;;0.45;0.10;;;18.90;52.20;;;;;;5042403;28;20143;-55
2021/11/20 06:54:52;;;;;;;0.20;0.10;;;18.90;52.20;;;;;;5049696;28;20049;-50
2021/11/20 06:57:50;;;;;;;0.35;0.13;;;18.90;52.20;;;;;;5057722;28;20580;-52
2021/11/20 07:00:44;;;;;;;0.20;0.10;;;18.90;52.20;;;;;;5049889;28;20138;-58
2021/11/20 07:03:28;;;;;;;0.10;0.10;;;18.90;52.30;;;;;;5075359;28;20037;-53
2021/11/20 07:06:09;;;;;;;0.30;0.10;;;18.90;52.30;;;;;;5048602;28;20578;-53
2021/11/20 07:08:36;;;;;;;0.17;0.10;;;18.90;52.30;;;;;;5053665;28;20040;-55
2021/11/20 07:11:05;;;;;;;0.10;0.10;;;18.80;52.20;;;;;;5039395;28;20048;-55
2021/11/20 07:13:32;;;;;;;0.10;0.10;;;18.90;52.20;;;;;;5052828;28;20100;-54
2021/11/20 07:16:00;;;;;;;0.75;0.20;;;18.90;52.20;;;;;;5044817;28;20053;-55
2021/11/20 07:18:28;;;;;;;0.10;0.10;;;18.80;52.20;;;;;;5044566;28;20052;-56
2021/11/20 07:21:24;;;;;;;0.10;0.10;;;18.90;52.20;;;;;;5044612;28;20125;-55
2021/11/20 07:24:05;;;;;;;0.10;0.10;;;18.80;52.20;;;;;;5035032;28;20258;-56
2021/11/20 07:26:35;;;;;;;0.10;0.10;;;18.80;52.20;;;;;;5040261;28;20584;-51
2021/11/20 07:29:04;;;;;;;0.20;0.15;;;18.80;52.20;;;;;;5030364;28;20098;-54
2021/11/20 07:31:40;;;;;;;0.20;0.20;;;18.80;52.20;;;;;;5039976;28;20115;-54
2021/11/20 07:34:07;;;;;;;1.75;0.10;;;18.80;52.20;;;;;;5036520;28;20167;-56
2021/11/20 07:36:35;;;;;;;0.20;0.10;;;18.80;52.20;;;;;;5064687;28;20067;-53
2021/11/20 07:39:05;;;;;;;0.20;0.10;;;18.90;52.20;;;;;;5039316;28;20076;-56
2021/11/20 07:41:34;;;;;;;0.10;0.10;;;18.90;52.20;;;;;;5053304;28;20040;-54
2021/11/20 07:44:05;;;;;;;0.20;0.10;;;18.80;52.20;;;;;;5036129;28;20041;-55
2021/11/20 07:46:36;;;;;;;0.10;0.10;;;18.80;52.20;;;;;;5025747;28;20475;-54
2021/11/20 07:49:06;;;;;;;0.13;0.10;;;18.90;52.20;;;;;;5042218;28;20069;-56
2021/11/20 07:51:37;;;;;;;0.17;0.17;;;18.80;52.20;;;;;;5037069;28;20049;-54
2021/11/20 07:54:07;;;;;;;0.10;0.10;;;18.80;52.70;;;;;;5035020;28;20044;-56
2021/11/20 07:56:45;;;;;;;0.20;0.10;;;18.80;52.20;;;;;;5032882;28;20105;-56
2021/11/20 07:59:14;;;;;;;0.57;0.10;;;18.80;52.20;;;;;;5038279;28;20101;-56
2021/11/20 08:01:42;;;;;;;0.10;0.10;;;18.80;52.20;;;;;;5034418;28;20412;-57
2021/11/20 08:04:12;;;;;;;0.52;0.17;;;18.80;52.20;;;;;;5039280;28;20518;-53
2021/11/20 08:07:07;;;;;;;0.40;0.25;;;18.80;52.10;;;;;;4987963;28;20054;-56
2021/11/20 08:10:01;;;;;;;0.10;0.10;;;18.80;52.20;;;;;;4991490;28;20059;-55
2021/11/20 08:12:36;;;;;;;0.10;0.10;;;18.80;52.20;;;;;;5003302;28;20061;-56
2021/11/20 08:15:11;;;;;;;0.10;0.10;;;18.80;52.10;;;;;;4990967;28;20043;-53
2021/11/20 08:17:52;;;;;;;0.10;0.10;;;18.80;52.10;;;;;;4966297;28;20054;-52
2021/11/20 08:20:47;;;;;;;0.17;0.10;;;18.80;52.10;;;;;;4908998;29;20055;-55
2021/11/20 08:23:30;;;;;;;0.20;0.20;;;18.80;52.10;;;;;;4894696;29;20064;-51
2021/11/20 08:25:58;;;;;;;0.10;0.10;;;18.80;52.10;;;;;;4912237;29;20058;-53
2021/11/20 08:28:29;;;;;;;0.50;0.15;;;18.90;52.20;;;;;;4918804;29;20040;-52
2021/11/20 08:30:56;;;;;;;0.10;0.10;;;18.80;52.10;;;;;;4913371;29;20051;-49
2021/11/20 08:33:24;;;;;;;1.02;0.10;;;18.80;52.10;;;;;;4940677;29;20428;-52
2021/11/20 08:36:12;;;;;;;0.55;0.20;;;18.80;52.10;;;;;;4929946;29;20048;-53
2021/11/20 08:39:04;;;;;;;0.45;0.20;;;18.80;52.10;;;;;;4909403;29;20062;-55
2021/11/20 08:41:31;;;;;;;0.73;0.20;;;18.80;52.10;;;;;;4908700;29;20052;-55
2021/11/20 08:44:00;;;;;;;0.17;0.10;;;18.80;52.00;;;;;;4938984;28;20695;-52
2021/11/20 08:46:35;;;;;;;1.17;0.10;;;18.80;52.00;;;;;;4949807;28;20050;-54
2021/11/20 08:49:05;;;;;;;0.28;0.20;;;18.80;52.00;;;;;;4966595;28;20122;-56
2021/11/20 08:51:34;;;;;;;0.20;0.15;;;18.80;52.00;;;;;;4960304;28;20145;-54
2021/11/20 08:54:04;;;;;;;0.30;0.20;;;18.80;52.00;;;;;;4971440;28;20059;-56
2021/11/20 08:56:35;;;;;;;0.20;0.20;;;18.80;52.00;;;;;;4955632;28;20702;-55
2021/11/20 08:59:09;;;;;;;0.10;0.10;;;18.90;52.00;;;;;;4991989;28;20068;-55
2021/11/20 09:01:59;;;;;;;0.35;0.10;;;18.90;52.00;;;;;;5003650;28;20038;-55
2021/11/20 09:04:39;;;;;;;0.77;0.10;;;18.80;52.00;;;;;;5000146;28;20053;-50
2021/11/20 09:07:11;;;;;;;0.45;0.30;;;18.80;52.00;;;;;;5009325;28;20057;-52
2021/11/20 09:09:48;;;;;;;0.38;0.10;;;18.90;52.00;;;;;;5003054;28;20053;-53
2021/11/20 09:12:21;;;;;;;0.28;0.20;;;18.80;52.00;;;;;;5006410;28;20132;-55
2021/11/20 09:14:52;;;;;;;1.10;0.10;;;18.80;52.00;;;;;;5001988;28;20052;-55
2021/11/20 09:17:23;;;;;;;1.10;0.10;;;18.80;52.00;;;;;;5072950;28;20053;-56
2021/11/20 09:19:52;;;;;;;0.17;0.10;;;18.90;52.00;;;;;;5065246;28;20146;-53
2021/11/20 09:22:23;;;;;;;0.17;0.17;;;18.90;52.00;;;;;;5069778;28;20125;-53
2021/11/20 09:25:02;;;;;;;0.30;0.30;;;18.90;52.00;;;;;;5067429;28;20049;-53
2021/11/20 09:27:34;;;;;;;0.20;0.20;;;18.80;51.90;;;;;;5067562;28;20045;-56
2021/11/20 09:30:04;;;;;;;0.10;0.10;;;18.90;52.00;;;;;;5066295;28;20071;-53
2021/11/20 09:32:31;;;;;;;0.20;0.10;;;18.90;52.00;;;;;;5043884;28;20114;-53
2021/11/20 09:35:08;;;;;;;0.10;0.10;;;18.90;51.90;;;;;;5067644;28;20032;-52
2021/11/20 09:38:08;;;;;;;0.20;0.10;;;18.90;51.90;;;;;;5061017;28;20036;-53
2021/11/20 09:40:38;;;;;;;0.10;0.10;;;18.90;52.00;;;;;;5066602;28;20564;-54
2021/11/20 09:43:18;;;;;;;0.10;0.10;;;18.90;51.90;;;;;;5064678;28;20045;-55
2021/11/20 09:45:51;;;;;;;0.10;0.10;;;18.90;52.00;;;;;;5068743;28;20075;-55
2021/11/20 09:48:25;;;;;;;0.10;0.10;;;18.90;51.90;;;;;;5069797;28;20051;-50
2021/11/20 09:51:01;;;;;;;0.10;0.10;;;18.90;51.90;;;;;;5070457;28;20127;-52
2021/11/20 09:53:29;;;;;;;0.20;0.10;;;18.90;51.90;;;;;;5069639;28;20427;-54
2021/11/20 09:56:01;;;;;;;0.10;0.10;;;18.90;51.80;;;;;;5069149;28;20118;-53
2021/11/20 09:58:35;;;;;;;0.20;0.20;;;18.90;51.80;;;;;;5081134;28;20098;-54
2021/11/20 10:01:33;;;;;;;0.20;0.10;;;18.90;51.80;;;;;;5069003;28;20671;-55
2021/11/20 10:04:20;;;;;;;0.20;0.20;;;18.90;51.70;;;;;;5065927;28;20045;-52
2021/11/20 10:06:49;;;;;;;0.77;0.30;;;18.90;51.80;;;;;;5072699;28;20036;-54
2021/11/20 10:09:25;;;;;;;0.28;0.20;;;18.90;51.80;;;;;;5066203;28;20075;-56
2021/11/20 10:11:59;;;;;;;0.93;0.20;;;18.90;51.70;;;;;;5074685;28;20041;-52
2021/11/20 10:14:37;;;;;;;0.43;0.10;;;18.90;51.70;;;;;;5076027;28;20048;-54
2021/11/20 10:17:19;;;;;;;0.32;0.20;;;18.90;51.70;;;;;;5058520;28;20048;-54
2021/11/20 10:19:49;;;;;;;0.22;0.22;;;19.00;51.70;;;;;;5064761;28;20040;-52
2021/11/20 10:22:25;;;;;;;2.75;0.25;;;18.90;51.70;;;;;;5077153;28;20118;-55
2021/11/20 10:25:09;;;;;;;0.30;0.20;;;18.90;51.70;;;;;;5068330;28;20088;-55
2021/11/20 10:27:47;;;;;;;0.50;0.20;;;19.00;51.70;;;;;;5070832;28;20044;-54
2021/11/20 10:30:32;;;;;;;1.08;0.38;;;18.90;51.70;;;;;;5077777;28;20036;-55
2021/11/20 10:33:05;;;;;;;0.57;0.57;;;19.00;51.60;;;;;;5068574;28;20060;-54
2021/11/20 10:35:35;;;;;;;1.17;0.57;;;18.90;51.60;;;;;;5074262;28;20283;-55
2021/11/20 10:38:12;;;;;;;0.88;0.47;;;18.90;51.60;;;;;;5069816;28;20488;-52
2021/11/20 10:40:47;;;;;;;0.75;0.30;;;19.00;51.60;;;;;;5063613;28;20698;-53
2021/11/20 10:43:22;;;;;;;1.60;0.60;;;19.00;51.60;;;;;;5064958;28;20060;-48
2021/11/20 10:45:53;;;;;;;2.30;1.02;;;19.00;51.60;;;;;;5072279;28;20040;-52
2021/11/20 10:48:35;;;;;;;1.67;0.60;;;19.00;51.60;;;;;;5064350;28;20037;-51
2021/11/20 10:51:33;;;;;;;2.00;1.15;;;19.00;51.50;;;;;;5078314;28;20056;-55
2021/11/20 10:54:44;;;;;;;1.85;1.33;;;19.00;51.50;;;;;;5067486;28;20559;-55
2021/11/20 10:57:24;;;;;;;1.60;0.90;;;19.00;51.50;;;;;;5066442;28;20913;-51
2021/11/20 11:00:16;;;;;;;1.20;1.10;;;19.00;51.60;;;;;;5068452;28;20044;-52
2021/11/20 11:03:01;;;;;;;1.17;1.10;;;19.00;51.50;;;;;;5068199;28;20044;-56
2021/11/20 11:05:51;;;;;;;1.05;0.47;;;19.00;51.50;;;;;;5075112;28;20079;-55
2021/11/20 11:08:28;;;;;;;0.95;0.60;;;19.00;51.50;;;;;;5070939;28;20051;-53
2021/11/20 11:10:59;;;;;;;2.28;1.13;;;19.00;51.50;;;;;;5070981;28;20612;-55
2021/11/20 11:13:41;;;;;;;1.00;0.95;;;19.00;51.50;;;;;;5064070;28;20137;-55
2021/11/20 11:16:16;;;;;;;2.35;0.88;;;19.00;51.50;;;;;;5070491;28;20043;-52
2021/11/20 11:18:45;;;;;;;3.78;1.95;;;19.00;51.50;;;;;;5062909;28;20047;-56
2021/11/20 11:21:55;;;;;;;1.02;1.02;;;19.00;51.40;;;;;;5067507;28;20532;-54
2021/11/20 11:24:52;;;;;;;0.82;0.82;;;19.00;51.40;;;;;;5067284;28;20044;-54
2021/11/20 11:27:25;;;;;;;2.08;1.52;;;19.00;51.40;;;;;;5067007;28;20070;-56
2021/11/20 11:30:02;;;;;;;1.23;0.47;;;19.00;51.40;;;;;;5068744;28;20234;-54
2021/11/20 11:32:32;;;;;;;3.35;1.27;;;19.00;51.40;;;;;;5077809;28;20517;-51
2021/11/20 11:35:06;;;;;;;0.85;0.85;;;19.00;51.30;;;;;;5107938;27;20107;-55
2021/11/20 11:37:51;;;;;;;2.22;0.88;;;19.00;51.30;;;;;;5073098;28;20032;-56
2021/11/20 11:40:31;;;;;;;1.50;0.75;;;19.00;51.30;;;;;;5058910;28;20033;-52
2021/11/20 11:43:03;;;;;;;1.10;0.98;;;19.00;51.30;;;;;;5067879;28;20464;-57
2021/11/20 11:46:02;;;;;;;2.40;0.75;;;19.00;51.20;;;;;;5074400;28;20043;-55
2021/11/20 11:49:03;;;;;;;0.63;0.63;;;19.00;51.20;;;;;;5085145;28;20505;-54
2021/11/20 11:51:56;;;;;;;1.08;0.93;;;19.00;51.20;;;;;;5078961;28;20036;-53
2021/11/20 11:54:37;;;;;;;1.02;1.02;;;19.00;51.20;;;;;;5071825;28;20102;-53
2021/11/20 11:57:22;;;;;;;2.17;1.27;;;19.00;51.30;;;;;;5080903;28;20131;-51
2021/11/20 11:59:57;;;;;;;1.58;1.50;;;19.00;51.30;;;;;;5065739;28;20124;-55
2021/11/20 12:02:27;;;;;;;1.67;1.53;;;19.00;51.30;;;;;;5073813;28;20566;-55
2021/11/20 12:04:56;;;;;;;3.33;1.30;;;19.00;51.30;;;;;;5069567;28;20840;-56
2021/11/20 12:07:55;;;;;;;1.23;1.13;;;19.00;52.10;;;;;;5080287;28;20037;-56
2021/11/20 12:10:36;;;;;;;1.08;0.98;;;19.00;51.30;;;;;;5065077;28;20056;-55
2021/11/20 12:13:06;;;;;;;1.95;1.58;;;19.00;51.30;;;;;;5061286;28;20428;-55
2021/11/20 12:15:40;;;;;;;1.45;1.35;;;19.00;51.40;;;;;;5087785;28;20372;-56
2021/11/20 12:18:23;;;;;;;1.55;1.45;;;19.00;51.40;;;;;;5072276;28;20051;-53
2021/11/20 12:20:56;;;;;;;1.95;1.02;;;19.00;51.30;;;;;;5079447;28;20593;-53
2021/11/20 12:23:35;;;;;;;1.25;1.15;;;19.00;51.40;;;;;;5076808;28;20040;-53
2021/11/20 12:26:21;;;;;;;1.05;0.95;;;19.00;51.40;;;;;;5079079;28;20123;-55
2021/11/20 12:29:17;;;;;;;2.70;1.45;;;19.00;51.30;;;;;;5069766;28;20032;-56
2021/11/20 12:32:05;;;;;;;0.85;0.85;;;19.00;51.30;;;;;;5080450;28;20044;-55
2021/11/20 12:34:44;;;;;;;1.52;1.40;;;19.00;51.40;;;;;;5064309;28;20036;-53
2021/11/20 12:37:36;;;;;;;2.22;1.48;;;19.00;51.40;;;;;;5064172;28;20033;-53
2021/11/20 12:40:22;;;;;;;1.73;1.52;;;19.00;51.30;;;;;;5084709;28;20029;-56
2021/11/20 12:43:10;;;;;;;1.15;1.05;;;19.00;51.30;;;;;;5071893;28;20041;-56
2021/11/20 12:46:01;;;;;;;1.77;1.67;;;19.00;51.30;;;;;;5075619;28;20052;-53
2021/11/20 12:49:02;;;;;;;1.40;1.15;;;19.00;51.30;;;;;;5087944;28;20048;-51
2021/11/20 12:51:47;;;;;;;1.33;1.23;;;19.00;51.30;;;;;;5077112;28;20110;-56
2021/11/20 12:54:41;;;;;;;1.58;1.48;;;18.90;51.30;;;;;;5066008;28;20045;-56
2021/11/20 12:57:17;;;;;;;1.60;1.45;;;19.00;51.30;;;;;;5069186;28;20135;-52
2021/11/20 12:59:48;;;;;;;1.33;1.17;;;18.90;51.30;;;;;;5065956;28;20072;-57
2021/11/20 13:02:27;;;;;;;3.00;1.30;;;18.90;51.30;;;;;;5074395;28;20056;-56
2021/11/20 13:04:56;;;;;;;4.38;1.27;;;18.90;51.20;;;;;;5062065;28;20040;-56
2021/11/20 13:07:28;;;;;;;1.15;1.05;;;18.90;51.20;;;;;;5073133;28;20033;-54
2021/11/20 13:09:59;;;;;;;1.33;1.23;;;18.90;51.80;;;;;;5073427;28;20044;-53
2021/11/20 13:12:32;;;;;;;1.88;0.88;;;18.90;51.30;;;;;;5075561;28;20045;-56
2021/11/20 13:15:13;;;;;;;1.23;1.08;;;18.90;51.20;;;;;;5080851;28;20048;-54
2021/11/20 13:17:54;;;;;;;3.80;2.03;;;18.90;51.20;;;;;;5076251;28;20116;-51
2021/11/20 13:20:30;;;;;;;1.10;0.82;;;18.90;51.20;;;;;;5064614;28;20041;-55
2021/11/20 13:23:08;;;;;;;1.75;0.98;;;18.90;51.20;;;;;;5065827;28;20042;-52
2021/11/20 13:25:46;;;;;;;2.85;1.33;;;18.90;51.20;;;;;;5058277;28;20060;-55